Monday, October 21, 2019, 10:06 PM EDT
Back to Local

KPBG, Plattsburgh International Airport

Location: Plattsburgh, NY, United States Lat: 44.65
Local Time: 10:06 PM EDT ( 2:06 GMT) Lon: -73.467
Time Zone: US/Eastern Elev: 239 ft

Show me the last for .
Show Decoded

2019-10-21 21:53 METAR KPBG 220153Z AUTO 00000KT 10SM CLR 06/04 A3012 RMK AO2 SLP202 T00560044 =
2019-10-21 20:53 METAR KPBG 220053Z AUTO 26003KT 10SM CLR 08/06 A3013 RMK AO2 SLP205 T00780056 =
2019-10-21 19:53 METAR KPBG 212353Z AUTO 00000KT 10SM CLR 07/06 A3013 RMK AO2 SLP206 T00720056
                 10156 20067 58000 =
2019-10-21 18:53 METAR KPBG 212253Z AUTO 00000KT 10SM CLR 09/07 A3014 RMK AO2 SLP210 T00940072 =
2019-10-21 17:53 METAR KPBG 212153Z AUTO 00000KT 10SM CLR 12/07 A3013 RMK AO2 SLP206 T01170067 =
2019-10-21 16:53 METAR KPBG 212053Z AUTO 07003KT 10SM CLR 15/07 A3013 RMK AO2 SLP205 T01500067
                 53001 =
2019-10-21 15:53 METAR KPBG 211953Z AUTO 04006KT 10SM CLR 16/06 A3011 RMK AO2 SLP199 T01560061 =
2019-10-21 10:53 METAR KPBG 211453Z AUTO 00000KT 10SM CLR 11/07 A3017 RMK AO2 SLP217 T01110072
                 53011 =
2019-10-21 09:53 METAR KPBG 211353Z AUTO 00000KT 10SM CLR 09/06 A3015 RMK AO2 SLP213 T00890061 =
2019-10-21 08:53 METAR KPBG 211253Z AUTO 00000KT 10SM CLR 04/03 A3014 RMK AO2 SLP210 T00440033 =
2019-10-21 07:53 METAR KPBG 211153Z AUTO 00000KT 8SM CLR 01/00 A3014 RMK AO2 SLP207 I6000
                 T00060000 10028 21006 51015 =
2019-10-21 07:40 METAR KPBG 211140Z AUTO 00000KT 3SM BR CLR 00/00 A3013 RMK AO2 T00000000 =
2019-10-21 07:35 METAR KPBG 211135Z AUTO 00000KT 1SM BR CLR 00/M01 A3013 RMK AO2 T00001006 =
2019-10-21 06:53 METAR KPBG 211053Z AUTO 00000KT 10SM CLR 01/00 A3013 RMK AO2 SLP206 T00060000 =
2019-10-21 05:53 METAR KPBG 210953Z AUTO 00000KT 8SM CLR 01/00 A3011 RMK AO2 SLP200 T00060000 =
2019-10-21 04:53 METAR KPBG 210853Z AUTO 00000KT 9SM CLR 01/00 A3009 RMK AO2 SLP192 I3000
                 T00060000 53014 =
2019-10-21 03:53 METAR KPBG 210753Z AUTO 00000KT 3SM BR CLR 02/01 A3007 RMK AO2 SLP183 I1000
                 T00170006 =
2019-10-21 02:53 METAR KPBG 210653Z AUTO 00000KT 10SM CLR 02/02 A3007 RMK AO2 SLP183 T00220017 =
2019-10-21 01:53 METAR KPBG 210553Z AUTO 21003KT 4SM BR CLR 02/02 A3005 RMK AO2 SLP177 T00220017
                 10078 20017 51007 =
2019-10-21 01:50 METAR KPBG 210550Z AUTO 00000KT 2SM BR CLR 02/02 A3005 RMK AO2 =
2019-10-21 00:53 METAR KPBG 210453Z AUTO 00000KT 10SM CLR 03/02 A3004 RMK AO2 SLP174 T00280022
                 401171017 =
2019-10-21 00:39 METAR KPBG 210439Z AUTO 00000KT 4SM BR CLR 02/02 A3004 RMK AO2 T00220017 =
2019-10-21 00:18 METAR KPBG 210418Z AUTO 00000KT 2SM BR CLR 03/02 A3003 RMK AO2 T00280022 =
2019-10-20 23:53 METAR KPBG 210353Z AUTO 00000KT 8SM FEW003 03/02 A3003 RMK AO2 SLP171 T00280022
                 =
2019-10-20 23:50 METAR KPBG 210350Z AUTO 00000KT 8SM FEW003 03/03 A3003 RMK AO2 =
2019-10-20 23:40 METAR KPBG 210340Z AUTO 00000KT 2SM BR FEW003 03/03 A3002 RMK AO2 VIS 3/4V5
                 T00330028 =
2019-10-20 23:33 METAR KPBG 210333Z AUTO 00000KT 1 3/4SM BR CLR 03/03 A3002 RMK AO2 VIS 1V5
                 T00330028 =
2019-10-20 22:53 METAR KPBG 210253Z AUTO 00000KT 3SM BR CLR 03/03 A3002 RMK AO2 SLP167 T00330028
                 52009 =
2019-10-20 22:29 METAR KPBG 210229Z AUTO 00000KT 4SM BR CLR 04/03 A3002 RMK AO2 T00390028 =
2019-10-20 22:21 METAR KPBG 210221Z AUTO 00000KT 2SM BR CLR 04/03 A3002 RMK AO2 VIS 3/4V5
                 T00390033 =

Support USWX by starting your Amazon purchase here.